Time;durP1;ratioP1;P1;durP2;ratioP2;P2;SDS_P1;SDS_P2;PMS_P1;PMS_P2;Temp;Humidity;BMP_temperature;BMP_pressure;BME280_temperature;BME280_humidity;BME280_pressure;Samples;Min_cycle;Max_cycle;Signal;HPM_P1;HPM_P2
2023/09/09 00:02:04;;;;;;;3.67;3.47;;;;;;;;;;4879457;29;20230;-84
2023/09/09 00:04:30;;;;;;;3.05;2.83;;;;;;;;;;4875032;29;20210;-83
2023/09/09 00:07:02;;;;;;;3.42;3.22;;;;;;;;;;4875691;29;20274;-82
2023/09/09 00:09:29;;;;;;;2.83;2.63;;;;;;;;;;4876675;29;20213;-81
2023/09/09 00:11:55;;;;;;;2.92;2.72;;;;;;;;;;4888572;29;20213;-82
2023/09/09 00:14:22;;;;;;;2.95;2.75;;;;;;;;;;4876900;29;20245;-80
2023/09/09 00:16:51;;;;;;;3.70;3.33;;;;;;;;;;4861272;29;20289;-83
2023/09/09 00:19:21;;;;;;;3.30;3.00;;;;;;;;;;4861438;29;20221;-80
2023/09/09 00:21:49;;;;;;;2.72;2.53;;;;;;;;;;4861330;29;20214;-81
2023/09/09 00:24:16;;;;;;;3.40;3.10;;;;;;;;;;4860741;29;20700;-84
2023/09/09 00:26:42;;;;;;;4.05;3.20;;;;;;;;;;4861522;29;20218;-82
2023/09/09 00:29:09;;;;;;;3.55;3.25;;;;;;;;;;4860519;29;20227;-85
2023/09/09 00:31:36;;;;;;;3.80;3.10;;;;;;;;;;4861419;29;20219;-83
2023/09/09 00:34:07;;;;;;;4.18;3.70;;;;;;;;;;4861117;29;20206;-83
2023/09/09 00:36:34;;;;;;;2.72;2.63;;;;;;;;;;4861195;29;20683;-82
2023/09/09 00:39:03;;;;;;;4.38;3.38;;;;;;;;;;4861024;29;20605;-81
2023/09/09 00:41:30;;;;;;;3.55;3.15;;;;;;;;;;4861190;29;20275;-80
2023/09/09 00:43:56;;;;;;;4.93;2.70;;;;;;;;;;4860811;29;20238;-81
2023/09/09 00:46:23;;;;;;;4.28;3.50;;;;;;;;;;4861434;29;20206;-84
2023/09/09 00:48:49;;;;;;;4.28;3.88;;;;;;;;;;4860862;29;20207;-82
2023/09/09 00:51:18;;;;;;;5.20;3.47;;;;;;;;;;4860628;29;20252;-81
2023/09/09 00:53:44;;;;;;;4.22;3.13;;;;;;;;;;4860882;29;20218;-81
2023/09/09 00:56:11;;;;;;;4.00;3.78;;;;;;;;;;4860745;29;20319;-82
2023/09/09 00:58:38;;;;;;;3.58;3.28;;;;;;;;;;4860425;29;20225;-81
2023/09/09 01:01:05;;;;;;;3.58;3.00;;;;;;;;;;4861130;29;20691;-82
2023/09/09 01:03:31;;;;;;;5.30;3.13;;;;;;;;;;4860508;29;20236;-81
2023/09/09 01:05:59;;;;;;;4.15;3.80;;;;;;;;;;4860403;29;20604;-81
2023/09/09 01:08:28;;;;;;;4.53;3.15;;;;;;;;;;4860470;29;20208;-82
2023/09/09 01:10:54;;;;;;;4.07;3.67;;;;;;;;;;4860496;29;20210;-83
2023/09/09 01:13:21;;;;;;;4.17;3.13;;;;;;;;;;4860525;29;20212;-81
2023/09/09 01:15:48;;;;;;;3.90;3.23;;;;;;;;;;4876047;29;20253;-82
2023/09/09 01:18:15;;;;;;;8.17;3.83;;;;;;;;;;4879137;29;20297;-82
2023/09/09 01:20:44;;;;;;;4.00;3.57;;;;;;;;;;4878836;29;20212;-82
2023/09/09 01:23:12;;;;;;;3.87;3.47;;;;;;;;;;4878341;29;20717;-81
2023/09/09 01:25:39;;;;;;;3.93;3.63;;;;;;;;;;4878899;29;20240;-81
2023/09/09 01:28:06;;;;;;;5.37;3.63;;;;;;;;;;4878658;29;20675;-81
2023/09/09 01:30:32;;;;;;;3.87;3.57;;;;;;;;;;4878811;29;20205;-81
2023/09/09 01:32:59;;;;;;;5.33;3.80;;;;;;;;;;4878778;29;20269;-81
2023/09/09 01:35:25;;;;;;;5.80;3.77;;;;;;;;;;4878471;29;20273;-81
2023/09/09 01:37:52;;;;;;;7.80;4.13;;;;;;;;;;4879101;29;20209;-81
2023/09/09 01:40:20;;;;;;;4.83;3.77;;;;;;;;;;4878397;29;20716;-82
2023/09/09 01:42:47;;;;;;;6.93;3.87;;;;;;;;;;4877983;29;20233;-82
2023/09/09 01:45:14;;;;;;;4.27;3.87;;;;;;;;;;4878717;29;20251;-81
2023/09/09 01:47:40;;;;;;;4.33;3.63;;;;;;;;;;4878540;29;20623;-82
2023/09/09 01:50:07;;;;;;;4.40;3.53;;;;;;;;;;4878730;29;20204;-82
2023/09/09 01:52:34;;;;;;;3.70;3.33;;;;;;;;;;4879540;29;20285;-82
2023/09/09 01:55:01;;;;;;;3.97;3.57;;;;;;;;;;4878715;29;20296;-82
2023/09/09 01:57:29;;;;;;;5.77;3.30;;;;;;;;;;4878156;29;20203;-82
2023/09/09 01:59:56;;;;;;;4.53;3.73;;;;;;;;;;4878265;29;20239;-82
2023/09/09 02:02:23;;;;;;;5.17;3.93;;;;;;;;;;4878641;29;20217;-82
2023/09/09 02:04:50;;;;;;;4.47;3.23;;;;;;;;;;4878310;29;20223;-82
2023/09/09 02:07:16;;;;;;;4.83;3.67;;;;;;;;;;4878267;29;20743;-81
2023/09/09 02:09:43;;;;;;;3.43;3.17;;;;;;;;;;4877943;29;20206;-83
2023/09/09 02:12:09;;;;;;;5.50;4.03;;;;;;;;;;4877241;29;20203;-83
2023/09/09 02:14:38;;;;;;;4.23;3.40;;;;;;;;;;4877936;29;20243;-80
2023/09/09 02:17:04;;;;;;;4.97;3.20;;;;;;;;;;4878362;29;20210;-81
2023/09/09 02:19:31;;;;;;;3.47;3.27;;;;;;;;;;4878482;29;20202;-81
2023/09/09 02:21:57;;;;;;;3.80;3.50;;;;;;;;;;4877831;29;20210;-82
2023/09/09 02:24:24;;;;;;;3.73;3.37;;;;;;;;;;4877735;29;20294;-81
2023/09/09 02:26:51;;;;;;;4.20;3.73;;;;;;;;;;4877431;29;20221;-80
2023/09/09 02:29:17;;;;;;;4.23;3.43;;;;;;;;;;4877631;29;20200;-80
2023/09/09 02:31:45;;;;;;;8.40;3.27;;;;;;;;;;4877876;29;20198;-82
2023/09/09 02:34:12;;;;;;;3.57;3.27;;;;;;;;;;4876854;29;20213;-81
2023/09/09 02:36:44;;;;;;;9.30;4.10;;;;;;;;;;4878221;29;20534;-80
2023/09/09 02:39:10;;;;;;;4.17;3.87;;;;;;;;;;4877492;29;20198;-82
2023/09/09 02:41:37;;;;;;;3.53;3.23;;;;;;;;;;4877810;29;20648;-82
2023/09/09 02:44:03;;;;;;;7.57;3.93;;;;;;;;;;4876678;29;20237;-82
2023/09/09 02:46:30;;;;;;;3.53;3.33;;;;;;;;;;4877361;29;20223;-80
2023/09/09 02:48:58;;;;;;;4.73;3.20;;;;;;;;;;4877346;29;20210;-81
2023/09/09 02:51:25;;;;;;;4.60;4.20;;;;;;;;;;4877367;29;20710;-82
2023/09/09 02:53:52;;;;;;;3.97;3.67;;;;;;;;;;4877695;29;20201;-82
2023/09/09 02:56:19;;;;;;;4.30;3.90;;;;;;;;;;4877555;29;20436;-81
2023/09/09 02:58:45;;;;;;;4.17;3.47;;;;;;;;;;4876596;29;20671;-81
2023/09/09 03:01:12;;;;;;;9.73;3.77;;;;;;;;;;4877594;29;20303;-81
2023/09/09 03:03:38;;;;;;;4.37;3.70;;;;;;;;;;4876931;29;20310;-82
2023/09/09 03:06:11;;;;;;;7.17;3.63;;;;;;;;;;4877150;29;20256;-82
2023/09/09 03:08:37;;;;;;;4.07;3.40;;;;;;;;;;4876970;29;20678;-81
2023/09/09 03:11:04;;;;;;;4.83;4.43;;;;;;;;;;4876732;29;20755;-82
2023/09/09 03:13:31;;;;;;;3.47;3.17;;;;;;;;;;4876760;29;20209;-81
2023/09/09 03:15:57;;;;;;;3.27;3.07;;;;;;;;;;4876589;29;20268;-81
2023/09/09 03:18:24;;;;;;;3.93;3.63;;;;;;;;;;4877124;29;20209;-80
2023/09/09 03:20:50;;;;;;;4.00;3.40;;;;;;;;;;4876535;29;20216;-82
2023/09/09 03:23:18;;;;;;;5.57;3.70;;;;;;;;;;4876763;29;20279;-82
2023/09/09 03:25:45;;;;;;;5.33;4.30;;;;;;;;;;4876305;29;20357;-82
2023/09/09 03:28:11;;;;;;;5.57;3.93;;;;;;;;;;4876238;29;20278;-81
2023/09/09 03:30:52;;;;;;;4.30;3.93;;;;;;;;;;4876770;29;20206;-81
2023/09/09 03:33:18;;;;;;;7.60;4.67;;;;;;;;;;4876602;29;20249;-82
2023/09/09 03:35:45;;;;;;;9.77;4.07;;;;;;;;;;4876363;29;20286;-81
2023/09/09 03:38:12;;;;;;;4.50;4.10;;;;;;;;;;4876412;29;20281;-81
2023/09/09 03:40:42;;;;;;;7.60;3.47;;;;;;;;;;4876361;29;20213;-81
2023/09/09 03:43:09;;;;;;;4.60;4.20;;;;;;;;;;4876067;29;20269;-81
2023/09/09 03:45:35;;;;;;;4.17;3.57;;;;;;;;;;4875897;29;20698;-82
2023/09/09 03:48:03;;;;;;;3.93;3.53;;;;;;;;;;4876389;29;20686;-82
2023/09/09 03:50:29;;;;;;;6.03;3.33;;;;;;;;;;4876504;29;20240;-82
2023/09/09 03:52:56;;;;;;;4.70;3.83;;;;;;;;;;4876638;29;20265;-82
2023/09/09 03:55:22;;;;;;;4.13;3.50;;;;;;;;;;4876098;29;20213;-83
2023/09/09 03:57:51;;;;;;;5.37;4.00;;;;;;;;;;4876684;29;20264;-82
2023/09/09 04:00:18;;;;;;;3.87;3.57;;;;;;;;;;4876490;29;20237;-82
2023/09/09 04:02:46;;;;;;;4.00;3.63;;;;;;;;;;4876581;29;20321;-82
2023/09/09 04:05:12;;;;;;;5.57;3.97;;;;;;;;;;4876104;29;20252;-81
2023/09/09 04:07:43;;;;;;;3.93;3.47;;;;;;;;;;4876578;29;20223;-82
2023/09/09 04:10:10;;;;;;;4.67;4.27;;;;;;;;;;4876639;29;20744;-81
2023/09/09 04:12:37;;;;;;;4.73;3.73;;;;;;;;;;4876620;29;20209;-83
2023/09/09 04:15:05;;;;;;;3.87;3.67;;;;;;;;;;4876216;29;20245;-82
2023/09/09 04:17:32;;;;;;;8.77;4.37;;;;;;;;;;4876356;29;20306;-81
2023/09/09 04:19:58;;;;;;;4.37;3.97;;;;;;;;;;4876008;29;20280;-82
2023/09/09 04:22:26;;;;;;;5.03;4.63;;;;;;;;;;4876807;29;20292;-83
2023/09/09 04:24:54;;;;;;;7.13;4.90;;;;;;;;;;4875972;29;20327;-83
2023/09/09 04:27:20;;;;;;;4.37;3.97;;;;;;;;;;4876418;29;20641;-82
2023/09/09 04:29:47;;;;;;;7.13;4.67;;;;;;;;;;4876277;29;20571;-83
2023/09/09 04:32:15;;;;;;;5.47;4.88;;;;;;;;;;4876141;29;20208;-82
2023/09/09 04:34:41;;;;;;;5.13;4.78;;;;;;;;;;4875772;29;20256;-81
2023/09/09 04:37:08;;;;;;;5.25;4.68;;;;;;;;;;4876255;29;20260;-84
2023/09/09 04:39:35;;;;;;;4.85;4.45;;;;;;;;;;4875820;29;20618;-84
2023/09/09 04:42:02;;;;;;;5.22;4.47;;;;;;;;;;4875762;29;20281;-83
2023/09/09 04:44:28;;;;;;;4.75;4.45;;;;;;;;;;4875765;29;20229;-84
2023/09/09 04:46:55;;;;;;;4.55;4.25;;;;;;;;;;4875633;29;20602;-84
2023/09/09 04:49:24;;;;;;;4.85;4.40;;;;;;;;;;4876055;29;20670;-83
2023/09/09 04:51:51;;;;;;;4.82;4.35;;;;;;;;;;4875631;29;20217;-84
2023/09/09 04:54:18;;;;;;;4.88;4.45;;;;;;;;;;4876207;29;20262;-84
2023/09/09 04:56:46;;;;;;;7.55;4.55;;;;;;;;;;4875989;29;20207;-85
2023/09/09 04:59:13;;;;;;;4.93;4.53;;;;;;;;;;4879540;29;20225;-84
2023/09/09 05:01:39;;;;;;;5.47;4.75;;;;;;;;;;4879278;29;20212;-84
2023/09/09 05:04:07;;;;;;;5.90;4.50;;;;;;;;;;4879794;29;20352;-83
2023/09/09 05:06:35;;;;;;;5.22;4.57;;;;;;;;;;4879325;29;20205;-82
2023/09/09 05:09:02;;;;;;;6.97;4.03;;;;;;;;;;4879014;29;20217;-83
2023/09/09 05:11:28;;;;;;;5.43;4.95;;;;;;;;;;4879068;29;20202;-83
2023/09/09 05:13:55;;;;;;;5.18;4.63;;;;;;;;;;4878982;29;20202;-83
2023/09/09 05:16:22;;;;;;;7.20;6.60;;;;;;;;;;4879487;29;20252;-82
2023/09/09 05:18:50;;;;;;;5.28;4.78;;;;;;;;;;4882305;29;20262;-84
2023/09/09 05:21:16;;;;;;;9.35;7.03;;;;;;;;;;4879545;29;20292;-82
2023/09/09 05:23:45;;;;;;;5.28;4.70;;;;;;;;;;4878706;29;20202;-82
2023/09/09 05:26:13;;;;;;;5.97;5.15;;;;;;;;;;4878665;29;20679;-82
2023/09/09 05:28:40;;;;;;;6.22;5.22;;;;;;;;;;4878965;29;20233;-84
2023/09/09 05:31:07;;;;;;;5.95;4.30;;;;;;;;;;4878914;29;20523;-83
2023/09/09 05:33:34;;;;;;;4.05;3.75;;;;;;;;;;4893610;29;20201;-83
2023/09/09 05:36:01;;;;;;;9.25;4.82;;;;;;;;;;4889825;29;20201;-82
2023/09/09 05:38:29;;;;;;;4.28;4.07;;;;;;;;;;4897273;29;20288;-83
2023/09/09 05:40:57;;;;;;;5.03;4.63;;;;;;;;;;4897534;29;20211;-84
2023/09/09 05:43:24;;;;;;;8.07;4.88;;;;;;;;;;4897682;29;20226;-83
2023/09/09 05:45:51;;;;;;;5.95;4.85;;;;;;;;;;4897574;29;20312;-84
2023/09/09 05:48:18;;;;;;;5.55;4.80;;;;;;;;;;4897621;29;20228;-83
2023/09/09 05:50:45;;;;;;;4.45;4.18;;;;;;;;;;4896961;29;20248;-83
2023/09/09 05:53:13;;;;;;;7.22;5.70;;;;;;;;;;4896938;29;20204;-83
2023/09/09 05:55:39;;;;;;;6.57;5.38;;;;;;;;;;4897396;29;20216;-83
2023/09/09 05:58:07;;;;;;;5.95;5.47;;;;;;;;;;4896179;29;20488;-82
2023/09/09 06:00:34;;;;;;;7.32;6.60;;;;;;;;;;4896867;29;20205;-83
2023/09/09 06:03:01;;;;;;;6.22;5.75;;;;;;;;;;4897048;29;20231;-82
2023/09/09 06:05:27;;;;;;;5.40;5.00;;;;;;;;;;4889009;29;20241;-83
2023/09/09 06:07:54;;;;;;;9.77;7.30;;;;;;;;;;4887406;29;20515;-83
2023/09/09 06:10:21;;;;;;;5.30;4.90;;;;;;;;;;4889033;29;20243;-83
2023/09/09 06:12:47;;;;;;;10.70;7.93;;;;;;;;;;4880541;29;20207;-81
2023/09/09 06:15:16;;;;;;;7.18;6.35;;;;;;;;;;4873941;29;20264;-83
2023/09/09 06:17:46;;;;;;;5.20;4.90;;;;;;;;;;4868015;29;20368;-83
2023/09/09 06:20:18;;;;;;;7.25;5.78;;;;;;;;;;4866823;29;20300;-82
2023/09/09 06:22:44;;;;;;;5.72;5.15;;;;;;;;;;4849180;29;20245;-83
2023/09/09 06:25:11;;;;;;;5.72;5.32;;;;;;;;;;4873349;29;20294;-82
2023/09/09 06:27:38;;;;;;;7.50;5.57;;;;;;;;;;4880469;29;20283;-82
2023/09/09 06:30:07;;;;;;;6.80;6.30;;;;;;;;;;4861341;29;20860;-83
2023/09/09 06:32:47;;;;;;;9.75;7.85;;;;;;;;;;4859213;29;20213;-81
2023/09/09 06:35:14;;;;;;;5.85;5.22;;;;;;;;;;4848640;29;20667;-84
2023/09/09 06:37:43;;;;;;;6.13;5.63;;;;;;;;;;4864718;29;20274;-84
2023/09/09 06:40:10;;;;;;;6.70;5.65;;;;;;;;;;4868396;29;20209;-82
2023/09/09 06:42:37;;;;;;;5.93;5.47;;;;;;;;;;4866776;29;20213;-82
2023/09/09 06:45:11;;;;;;;8.30;5.95;;;;;;;;;;4865557;29;20286;-82
2023/09/09 06:47:39;;;;;;;10.15;8.85;;;;;;;;;;4865010;29;20218;-83
2023/09/09 06:50:06;;;;;;;6.30;5.70;;;;;;;;;;4860852;29;20217;-82
2023/09/09 06:52:39;;;;;;;7.25;6.55;;;;;;;;;;4865894;29;20250;-82
2023/09/09 06:55:08;;;;;;;6.75;5.57;;;;;;;;;;4865964;29;20585;-81
2023/09/09 06:57:35;;;;;;;7.13;6.55;;;;;;;;;;4865792;29;20284;-82
2023/09/09 07:00:03;;;;;;;5.13;4.72;;;;;;;;;;4863029;29;20223;-81
2023/09/09 07:02:30;;;;;;;5.57;5.07;;;;;;;;;;4858406;29;20201;-82
2023/09/09 07:04:58;;;;;;;5.28;4.88;;;;;;;;;;4858490;29;20701;-83
2023/09/09 07:07:25;;;;;;;5.10;4.70;;;;;;;;;;4858880;29;20568;-82
2023/09/09 07:09:54;;;;;;;5.07;4.72;;;;;;;;;;4858181;29;20236;-82
2023/09/09 07:12:21;;;;;;;5.38;4.97;;;;;;;;;;4858089;29;20209;-82
2023/09/09 07:14:47;;;;;;;9.10;4.40;;;;;;;;;;4857559;29;20272;-82
2023/09/09 07:17:14;;;;;;;4.57;4.22;;;;;;;;;;4858370;29;20274;-83
2023/09/09 07:19:41;;;;;;;4.97;4.57;;;;;;;;;;4857769;29;20206;-81
2023/09/09 07:22:15;;;;;;;5.07;4.32;;;;;;;;;;4859036;29;20213;-82
2023/09/09 07:24:42;;;;;;;4.47;4.07;;;;;;;;;;4858367;29;20723;-82
2023/09/09 07:27:08;;;;;;;4.35;3.95;;;;;;;;;;4858179;29;20594;-82
2023/09/09 07:29:37;;;;;;;4.07;3.83;;;;;;;;;;4857365;29;20237;-82
2023/09/09 07:32:05;;;;;;;3.58;3.17;;;;;;;;;;4858113;29;20416;-82
2023/09/09 07:34:31;;;;;;;3.63;3.30;;;;;;;;;;4858245;29;20607;-82
2023/09/09 07:36:58;;;;;;;4.00;3.55;;;;;;;;;;4857414;29;20218;-82
2023/09/09 07:39:29;;;;;;;2.72;2.63;;;;;;;;;;4857752;29;20210;-82
2023/09/09 07:41:55;;;;;;;3.05;2.40;;;;;;;;;;4857973;29;20290;-84
2023/09/09 07:44:22;;;;;;;3.97;2.63;;;;;;;;;;4857176;29;20210;-83
2023/09/09 07:46:49;;;;;;;3.05;2.75;;;;;;;;;;4857909;29;20255;-82
2023/09/09 07:49:16;;;;;;;2.50;1.90;;;;;;;;;;4858053;29;20290;-84
2023/09/09 07:51:42;;;;;;;3.50;2.03;;;;;;;;;;4857973;29;20292;-82
2023/09/09 07:54:09;;;;;;;2.55;2.45;;;;;;;;;;4858670;29;20202;-85
2023/09/09 07:56:45;;;;;;;2.92;2.63;;;;;;;;;;4857974;29;20214;-85
2023/09/09 07:59:14;;;;;;;2.53;2.42;;;;;;;;;;4857822;29;20210;-84
2023/09/09 08:01:44;;;;;;;3.03;1.92;;;;;;;;;;4858366;29;20761;-86
2023/09/09 08:04:12;;;;;;;2.10;2.00;;;;;;;;;;4858306;29;20273;-85
2023/09/09 08:06:38;;;;;;;2.83;1.95;;;;;;;;;;4857559;29;20244;-86
2023/09/09 08:09:08;;;;;;;1.73;1.67;;;;;;;;;;4857929;29;20205;-85
2023/09/09 08:11:35;;;;;;;1.50;1.50;;;;;;;;;;4858428;29;20231;-85
2023/09/09 08:14:03;;;;;;;2.10;2.00;;;;;;;;;;4859028;29;20711;-86
2023/09/09 08:16:30;;;;;;;1.85;1.75;;;;;;;;;;4883026;29;20208;-86
2023/09/09 08:18:57;;;;;;;1.60;1.60;;;;;;;;;;4895341;29;20697;-86
2023/09/09 08:21:23;;;;;;;2.10;2.00;;;;;;;;;;4894124;29;20201;-85
2023/09/09 08:23:52;;;;;;;1.92;1.83;;;;;;;;;;4876613;29;20216;-86
2023/09/09 08:26:19;;;;;;;2.20;2.10;;;;;;;;;;4876964;29;20248;-85
2023/09/09 08:28:45;;;;;;;2.05;1.73;;;;;;;;;;4877519;29;20563;-85
2023/09/09 08:31:14;;;;;;;2.85;1.70;;;;;;;;;;4877919;29;20206;-87
2023/09/09 08:33:40;;;;;;;1.75;1.60;;;;;;;;;;4880249;29;20210;-85
2023/09/09 08:36:07;;;;;;;1.70;1.60;;;;;;;;;;4880293;29;20209;-87
2023/09/09 08:38:33;;;;;;;2.20;2.05;;;;;;;;;;4880476;29;20209;-87
2023/09/09 08:41:04;;;;;;;2.47;2.28;;;;;;;;;;4880276;29;20210;-84
2023/09/09 08:43:34;;;;;;;1.90;1.80;;;;;;;;;;4879923;29;20205;-85
2023/09/09 08:46:04;;;;;;;3.45;1.75;;;;;;;;;;4880425;29;20225;-87
2023/09/09 08:48:34;;;;;;;3.50;1.73;;;;;;;;;;4882232;29;20206;-85
2023/09/09 08:51:03;;;;;;;1.58;1.48;;;;;;;;;;4881014;29;20229;-85
2023/09/09 08:53:32;;;;;;;1.52;1.42;;;;;;;;;;4880042;29;20262;-85
2023/09/09 08:56:00;;;;;;;1.30;1.30;;;;;;;;;;4880030;29;20271;-85
2023/09/09 08:58:27;;;;;;;1.63;1.30;;;;;;;;;;4879570;29;20224;-86
2023/09/09 09:00:55;;;;;;;1.50;1.40;;;;;;;;;;4880003;29;20213;-87
2023/09/09 09:03:22;;;;;;;1.38;1.27;;;;;;;;;;4879600;29;20217;-87
2023/09/09 09:05:51;;;;;;;1.80;1.70;;;;;;;;;;4879730;29;20230;-86
2023/09/09 09:08:18;;;;;;;3.10;1.90;;;;;;;;;;4879742;29;20214;-87
2023/09/09 09:10:47;;;;;;;1.40;1.30;;;;;;;;;;4879693;29;20791;-88
2023/09/09 09:13:13;;;;;;;1.40;1.40;;;;;;;;;;4879536;29;20269;-85
2023/09/09 09:15:41;;;;;;;1.58;1.50;;;;;;;;;;4865451;29;20253;-86
2023/09/09 09:18:08;;;;;;;1.60;1.50;;;;;;;;;;4861796;29;20297;-87
2023/09/09 09:20:36;;;;;;;1.23;1.23;;;;;;;;;;4861622;29;20211;-87
2023/09/09 09:23:05;;;;;;;1.80;1.70;;;;;;;;;;4860768;29;20228;-84
2023/09/09 09:25:36;;;;;;;2.53;1.60;;;;;;;;;;4862779;29;20321;-83
2023/09/09 09:28:03;;;;;;;1.42;1.33;;;;;;;;;;4859821;29;20216;-83
2023/09/09 09:30:29;;;;;;;1.10;1.10;;;;;;;;;;4860590;29;20271;-84
2023/09/09 09:32:57;;;;;;;1.58;1.50;;;;;;;;;;4877094;29;20223;-82
2023/09/09 09:35:24;;;;;;;1.60;1.42;;;;;;;;;;4878473;29;20652;-85
2023/09/09 09:37:54;;;;;;;1.38;1.20;;;;;;;;;;4876729;29;20201;-83
2023/09/09 09:40:22;;;;;;;1.63;1.52;;;;;;;;;;4849116;29;20679;-85
2023/09/09 09:42:51;;;;;;;2.35;1.60;;;;;;;;;;4858185;29;20680;-82
2023/09/09 09:45:18;;;;;;;1.50;1.50;;;;;;;;;;4859275;29;20264;-83
2023/09/09 09:47:46;;;;;;;1.77;1.38;;;;;;;;;;4858754;29;20656;-85
2023/09/09 09:50:20;;;;;;;1.40;1.35;;;;;;;;;;4858074;29;20947;-84
2023/09/09 09:52:49;;;;;;;1.15;1.15;;;;;;;;;;4858717;29;20646;-84
2023/09/09 09:55:19;;;;;;;4.18;1.38;;;;;;;;;;4858431;29;20234;-83
2023/09/09 09:57:47;;;;;;;1.42;1.40;;;;;;;;;;4858955;29;20232;-84
2023/09/09 10:00:20;;;;;;;1.52;1.42;;;;;;;;;;4858394;29;20264;-84
2023/09/09 10:02:49;;;;;;;1.13;1.13;;;;;;;;;;4858237;29;20298;-86
2023/09/09 10:05:16;;;;;;;2.20;1.67;;;;;;;;;;4858205;29;20321;-84
2023/09/09 10:07:43;;;;;;;1.02;1.02;;;;;;;;;;4858559;29;20233;-83
2023/09/09 10:10:10;;;;;;;2.08;1.10;;;;;;;;;;4857977;29;20234;-83
2023/09/09 10:12:41;;;;;;;3.88;1.48;;;;;;;;;;4858313;29;20230;-83
2023/09/09 10:15:10;;;;;;;1.45;1.45;;;;;;;;;;4867290;29;20255;-85
2023/09/09 10:17:37;;;;;;;1.33;1.30;;;;;;;;;;4877165;29;20321;-85
2023/09/09 10:20:05;;;;;;;3.40;1.65;;;;;;;;;;4875789;29;20240;-85
2023/09/09 10:22:33;;;;;;;1.42;1.42;;;;;;;;;;4876764;29;20249;-85
2023/09/09 10:25:03;;;;;;;1.63;1.58;;;;;;;;;;4876365;29;20261;-83
2023/09/09 10:27:30;;;;;;;6.70;1.40;;;;;;;;;;4875670;29;20315;-83
2023/09/09 10:29:58;;;;;;;1.38;1.38;;;;;;;;;;4876238;29;20229;-86
2023/09/09 10:32:27;;;;;;;1.30;1.20;;;;;;;;;;4876082;29;20237;-83
2023/09/09 10:34:54;;;;;;;1.33;1.23;;;;;;;;;;4875936;29;20768;-83
2023/09/09 10:37:22;;;;;;;1.80;1.70;;;;;;;;;;4876162;29;20239;-84
2023/09/09 10:39:49;;;;;;;1.27;1.23;;;;;;;;;;4876074;29;20316;-83
2023/09/09 10:42:16;;;;;;;1.30;1.20;;;;;;;;;;4874820;29;20286;-83
2023/09/09 10:44:47;;;;;;;1.55;1.30;;;;;;;;;;4876413;29;20237;-83
2023/09/09 10:47:15;;;;;;;1.30;1.30;;;;;;;;;;4875753;29;20341;-83
2023/09/09 10:49:44;;;;;;;1.10;1.10;;;;;;;;;;4876748;29;20308;-84
2023/09/09 10:52:25;;;;;;;4.32;1.45;;;;;;;;;;4875404;29;20257;-86
2023/09/09 10:55:10;;;;;;;2.15;0.93;;;;;;;;;;4874201;29;20229;-83
2023/09/09 10:57:37;;;;;;;1.13;1.00;;;;;;;;;;4875019;29;20298;-83
2023/09/09 11:00:09;;;;;;;1.65;1.15;;;;;;;;;;4874998;29;20237;-84
2023/09/09 11:02:45;;;;;;;1.00;1.00;;;;;;;;;;4874684;29;20703;-87
2023/09/09 11:05:14;;;;;;;1.95;1.00;;;;;;;;;;4879057;29;20209;-86
2023/09/09 11:07:41;;;;;;;2.05;1.23;;;;;;;;;;4883717;29;20210;-87
2023/09/09 11:10:08;;;;;;;1.25;1.15;;;;;;;;;;4876887;29;20206;-85
2023/09/09 11:12:37;;;;;;;1.33;1.17;;;;;;;;;;4875322;29;20710;-85
2023/09/09 11:15:08;;;;;;;1.77;1.23;;;;;;;;;;4864493;29;20242;-85
2023/09/09 11:17:35;;;;;;;1.15;1.15;;;;;;;;;;4856010;29;20594;-85
2023/09/09 11:20:02;;;;;;;1.00;1.00;;;;;;;;;;4855893;29;20218;-85
2023/09/09 11:22:30;;;;;;;2.97;1.48;;;;;;;;;;4856893;29;20290;-85
2023/09/09 11:24:59;;;;;;;0.90;0.90;;;;;;;;;;4856845;29;20706;-87
2023/09/09 11:27:26;;;;;;;1.13;1.13;;;;;;;;;;4856929;29;20241;-84
2023/09/09 11:29:53;;;;;;;1.10;1.10;;;;;;;;;;4858576;29;20206;-87
2023/09/09 11:32:27;;;;;;;0.93;0.93;;;;;;;;;;4858555;29;20299;-87
2023/09/09 11:34:54;;;;;;;1.00;1.00;;;;;;;;;;4858989;29;20224;-86
2023/09/09 11:37:24;;;;;;;1.05;1.05;;;;;;;;;;4859585;29;20229;-86
2023/09/09 11:39:54;;;;;;;1.55;1.10;;;;;;;;;;4858523;29;20206;-86
2023/09/09 11:42:21;;;;;;;1.10;1.10;;;;;;;;;;4858612;29;20683;-88
2023/09/09 11:44:48;;;;;;;1.42;1.33;;;;;;;;;;4859140;29;20210;-86
2023/09/09 11:47:15;;;;;;;0.90;0.90;;;;;;;;;;4860791;29;20322;-84
2023/09/09 11:49:43;;;;;;;1.38;1.10;;;;;;;;;;4864182;29;20210;-85
2023/09/09 11:52:10;;;;;;;1.10;1.10;;;;;;;;;;4860384;29;20225;-86
2023/09/09 11:54:37;;;;;;;1.00;1.00;;;;;;;;;;4858145;29;20198;-86
2023/09/09 11:57:06;;;;;;;4.68;0.95;;;;;;;;;;4858927;29;20289;-87
2023/09/09 11:59:43;;;;;;;1.60;1.50;;;;;;;;;;4858196;29;20433;-87
2023/09/09 12:02:17;;;;;;;1.40;1.40;;;;;;;;;;4858045;29;20221;-84
2023/09/09 12:04:52;;;;;;;1.05;1.05;;;;;;;;;;4857124;29;20202;-84
2023/09/09 12:07:20;;;;;;;1.40;1.30;;;;;;;;;;4859810;29;20676;-86
2023/09/09 12:09:47;;;;;;;0.77;0.77;;;;;;;;;;4861146;29;20202;-84
2023/09/09 12:12:15;;;;;;;1.30;1.20;;;;;;;;;;4860887;29;20205;-85
2023/09/09 12:14:42;;;;;;;1.10;1.10;;;;;;;;;;4860563;29;20252;-84
2023/09/09 12:17:10;;;;;;;1.10;1.10;;;;;;;;;;4861069;29;20698;-85
2023/09/09 12:19:36;;;;;;;0.90;0.90;;;;;;;;;;4861339;29;20207;-88
2023/09/09 12:22:06;;;;;;;4.43;0.95;;;;;;;;;;4861671;29;20680;-86
2023/09/09 12:24:40;;;;;;;0.93;0.93;;;;;;;;;;4861502;29;20213;-89
2023/09/09 12:27:07;;;;;;;4.50;1.10;;;;;;;;;;4861320;29;20316;-87
2023/09/09 12:29:44;;;;;;;1.20;1.10;;;;;;;;;;4861955;29;20214;-87
2023/09/09 12:32:11;;;;;;;1.65;1.05;;;;;;;;;;4867660;29;20277;-87
2023/09/09 12:34:39;;;;;;;1.00;1.00;;;;;;;;;;4867081;29;20222;-88
2023/09/09 12:37:05;;;;;;;3.50;1.30;;;;;;;;;;4862565;29;20287;-86
2023/09/09 12:39:32;;;;;;;3.28;1.30;;;;;;;;;;4870988;29;20286;-88
2023/09/09 12:42:01;;;;;;;1.70;0.95;;;;;;;;;;4857625;29;20726;-90
2023/09/09 12:44:29;;;;;;;1.30;1.00;;;;;;;;;;4860381;29;20266;-87
2023/09/09 12:46:57;;;;;;;1.30;1.20;;;;;;;;;;4859601;29;20246;-86
2023/09/09 12:49:23;;;;;;;5.18;1.15;;;;;;;;;;4860330;29;20229;-86
2023/09/09 12:51:50;;;;;;;1.10;1.10;;;;;;;;;;4859233;29;20314;-87
2023/09/09 12:54:18;;;;;;;1.13;1.10;;;;;;;;;;4860343;29;20245;-87
2023/09/09 12:56:47;;;;;;;2.35;0.90;;;;;;;;;;4860002;29;20275;-86
2023/09/09 12:59:15;;;;;;;1.23;1.10;;;;;;;;;;4861636;29;20230;-87
2023/09/09 13:01:41;;;;;;;0.90;0.90;;;;;;;;;;4860633;29;20249;-87
2023/09/09 13:04:17;;;;;;;4.97;1.13;;;;;;;;;;4866199;29;20245;-89
2023/09/09 13:06:46;;;;;;;1.75;1.33;;;;;;;;;;4872594;29;20241;-87
2023/09/09 13:09:17;;;;;;;0.98;0.98;;;;;;;;;;4877598;29;20529;-88
2023/09/09 13:11:46;;;;;;;0.90;0.90;;;;;;;;;;4878311;29;20225;-88
2023/09/09 13:14:17;;;;;;;1.13;0.93;;;;;;;;;;4880705;29;20304;-88
2023/09/09 13:16:46;;;;;;;3.42;1.00;;;;;;;;;;4897040;29;20268;-86
2023/09/09 13:19:16;;;;;;;4.53;1.08;;;;;;;;;;4894956;29;20228;-86
2023/09/09 13:21:46;;;;;;;1.00;1.00;;;;;;;;;;4896929;29;20235;-87
2023/09/09 13:24:16;;;;;;;1.00;1.00;;;;;;;;;;4896251;29;20768;-87
2023/09/09 13:26:47;;;;;;;1.20;1.10;;;;;;;;;;4893162;29;20790;-86
2023/09/09 13:29:18;;;;;;;1.25;0.80;;;;;;;;;;4874240;29;20264;-87
2023/09/09 13:31:47;;;;;;;1.05;1.05;;;;;;;;;;4877472;29;20244;-86
2023/09/09 13:34:17;;;;;;;0.85;0.85;;;;;;;;;;4870908;29;20728;-87
2023/09/09 13:36:45;;;;;;;2.35;0.95;;;;;;;;;;4878045;29;20229;-85
2023/09/09 13:39:14;;;;;;;1.02;1.00;;;;;;;;;;4876441;29;20239;-86
2023/09/09 13:41:43;;;;;;;0.80;0.80;;;;;;;;;;4875770;29;20217;-88
2023/09/09 13:44:18;;;;;;;0.80;0.75;;;;;;;;;;4876571;29;20328;-86
2023/09/09 13:46:47;;;;;;;0.75;0.75;;;;;;;;;;4877279;29;20240;-87
2023/09/09 13:49:22;;;;;;;1.23;0.98;;;;;;;;;;4875815;29;20241;-86
2023/09/09 13:51:55;;;;;;;0.82;0.82;;;;;;;;;;4876364;29;20318;-88
2023/09/09 13:54:28;;;;;;;0.90;0.90;;;;;;;;;;4869967;29;20249;-88
2023/09/09 13:56:58;;;;;;;1.13;1.13;;;;;;;;;;4875786;29;20623;-87
2023/09/09 13:59:29;;;;;;;0.85;0.85;;;;;;;;;;4871605;29;20241;-86
2023/09/09 14:01:56;;;;;;;0.80;0.80;;;;;;;;;;4876600;29;20629;-85
2023/09/09 14:04:26;;;;;;;0.80;0.80;;;;;;;;;;4877327;29;20243;-86
2023/09/09 14:06:53;;;;;;;5.07;0.95;;;;;;;;;;4876891;29;20325;-85
2023/09/09 14:09:20;;;;;;;1.08;0.77;;;;;;;;;;4876505;29;20233;-85
2023/09/09 14:11:46;;;;;;;0.70;0.70;;;;;;;;;;4876614;29;20241;-84
2023/09/09 14:14:14;;;;;;;0.98;0.98;;;;;;;;;;4876712;29;20251;-87
2023/09/09 14:16:41;;;;;;;0.70;0.70;;;;;;;;;;4878682;29;20237;-87
2023/09/09 14:19:08;;;;;;;0.93;0.93;;;;;;;;;;4879522;29;20248;-86
2023/09/09 14:21:37;;;;;;;7.20;1.00;;;;;;;;;;4889239;29;20267;-85
2023/09/09 14:24:04;;;;;;;1.08;1.08;;;;;;;;;;4883613;29;20230;-87
2023/09/09 14:26:30;;;;;;;2.33;1.17;;;;;;;;;;4875735;29;20248;-87
2023/09/09 14:28:57;;;;;;;0.93;0.93;;;;;;;;;;4875833;29;20226;-87
2023/09/09 14:31:24;;;;;;;0.70;0.70;;;;;;;;;;4876169;29;20225;-88
2023/09/09 14:33:52;;;;;;;1.88;1.00;;;;;;;;;;4875234;29;20670;-88
2023/09/09 14:36:19;;;;;;;0.82;0.82;;;;;;;;;;4876239;29;20241;-87
2023/09/09 14:38:48;;;;;;;0.80;0.80;;;;;;;;;;4875617;29;20313;-88
2023/09/09 14:41:15;;;;;;;0.85;0.85;;;;;;;;;;4875482;29;20312;-86
2023/09/09 14:43:42;;;;;;;12.48;1.85;;;;;;;;;;4876246;29;20233;-86
2023/09/09 14:46:09;;;;;;;1.45;0.82;;;;;;;;;;4875013;29;20313;-88
2023/09/09 14:48:38;;;;;;;0.73;0.73;;;;;;;;;;4876194;29;20308;-87